sensor_id;sensor_type;location;lat;lon;timestamp;P1;durP1;ratioP1;P2;durP2;ratioP2
36247;SDS011;22287;50.824;5.644;2023-04-03T00:01:04;5.95;;;3.50;;
36247;SDS011;22287;50.824;5.644;2023-04-03T00:03:32;4.80;;;3.67;;
36247;SDS011;22287;50.824;5.644;2023-04-03T00:05:59;5.45;;;3.22;;
36247;SDS011;22287;50.824;5.644;2023-04-03T00:08:27;4.75;;;3.28;;
36247;SDS011;22287;50.824;5.644;2023-04-03T00:10:56;5.90;;;3.00;;
36247;SDS011;22287;50.824;5.644;2023-04-03T00:13:23;8.73;;;4.03;;
36247;SDS011;22287;50.824;5.644;2023-04-03T00:15:51;5.90;;;3.33;;
36247;SDS011;22287;50.824;5.644;2023-04-03T00:18:20;4.68;;;3.40;;
36247;SDS011;22287;50.824;5.644;2023-04-03T00:20:48;4.00;;;3.10;;
36247;SDS011;22287;50.824;5.644;2023-04-03T00:23:15;5.22;;;3.00;;
36247;SDS011;22287;50.824;5.644;2023-04-03T00:25:42;3.88;;;3.47;;
36247;SDS011;22287;50.824;5.644;2023-04-03T00:28:09;4.00;;;3.00;;
36247;SDS011;22287;50.824;5.644;2023-04-03T00:30:36;5.10;;;3.13;;
36247;SDS011;22287;50.824;5.644;2023-04-03T00:33:04;6.10;;;4.07;;
36247;SDS011;22287;50.824;5.644;2023-04-03T00:35:31;4.55;;;3.03;;
36247;SDS011;22287;50.824;5.644;2023-04-03T00:37:58;6.25;;;3.45;;
36247;SDS011;22287;50.824;5.644;2023-04-03T00:40:25;4.82;;;3.20;;
36247;SDS011;22287;50.824;5.644;2023-04-03T00:42:57;5.68;;;3.50;;
36247;SDS011;22287;50.824;5.644;2023-04-03T00:48:02;6.35;;;3.72;;
36247;SDS011;22287;50.824;5.644;2023-04-03T00:50:34;5.22;;;3.25;;
36247;SDS011;22287;50.824;5.644;2023-04-03T00:53:04;4.63;;;3.13;;
36247;SDS011;22287;50.824;5.644;2023-04-03T00:55:33;5.78;;;3.70;;
36247;SDS011;22287;50.824;5.644;2023-04-03T00:58:03;4.07;;;3.05;;
36247;SDS011;22287;50.824;5.644;2023-04-03T01:00:33;4.57;;;3.07;;
36247;SDS011;22287;50.824;5.644;2023-04-03T01:03:04;5.78;;;3.33;;
36247;SDS011;22287;50.824;5.644;2023-04-03T01:05:31;6.32;;;3.63;;
36247;SDS011;22287;50.824;5.644;2023-04-03T01:07:59;4.75;;;3.08;;
36247;SDS011;22287;50.824;5.644;2023-04-03T01:10:27;4.47;;;3.22;;
36247;SDS011;22287;50.824;5.644;2023-04-03T01:12:54;6.00;;;3.25;;
36247;SDS011;22287;50.824;5.644;2023-04-03T01:15:23;5.07;;;3.13;;
36247;SDS011;22287;50.824;5.644;2023-04-03T01:17:53;5.00;;;3.33;;
36247;SDS011;22287;50.824;5.644;2023-04-03T01:25:40;4.82;;;3.58;;
36247;SDS011;22287;50.824;5.644;2023-04-03T01:28:10;5.35;;;3.55;;
36247;SDS011;22287;50.824;5.644;2023-04-03T01:30:44;3.90;;;2.97;;
36247;SDS011;22287;50.824;5.644;2023-04-03T01:33:27;4.95;;;3.20;;
36247;SDS011;22287;50.824;5.644;2023-04-03T01:35:54;5.93;;;3.40;;
36247;SDS011;22287;50.824;5.644;2023-04-03T01:38:22;6.23;;;3.10;;
36247;SDS011;22287;50.824;5.644;2023-04-03T01:40:49;3.83;;;3.13;;
36247;SDS011;22287;50.824;5.644;2023-04-03T01:43:16;5.68;;;3.50;;
36247;SDS011;22287;50.824;5.644;2023-04-03T01:45:43;5.85;;;3.75;;
36247;SDS011;22287;50.824;5.644;2023-04-03T01:48:10;4.03;;;3.60;;
36247;SDS011;22287;50.824;5.644;2023-04-03T01:50:37;5.45;;;3.60;;
36247;SDS011;22287;50.824;5.644;2023-04-03T01:53:05;6.95;;;3.85;;
36247;SDS011;22287;50.824;5.644;2023-04-03T01:55:32;5.57;;;3.47;;
36247;SDS011;22287;50.824;5.644;2023-04-03T01:57:59;4.50;;;3.28;;
36247;SDS011;22287;50.824;5.644;2023-04-03T02:00:26;4.20;;;3.10;;
36247;SDS011;22287;50.824;5.644;2023-04-03T02:02:53;4.63;;;3.10;;
36247;SDS011;22287;50.824;5.644;2023-04-03T02:05:20;6.43;;;3.33;;
36247;SDS011;22287;50.824;5.644;2023-04-03T02:07:46;9.23;;;4.07;;
36247;SDS011;22287;50.824;5.644;2023-04-03T02:10:13;6.57;;;3.37;;
36247;SDS011;22287;50.824;5.644;2023-04-03T02:12:41;5.47;;;3.67;;
36247;SDS011;22287;50.824;5.644;2023-04-03T02:15:08;5.80;;;3.97;;
36247;SDS011;22287;50.824;5.644;2023-04-03T02:17:35;7.50;;;4.47;;
36247;SDS011;22287;50.824;5.644;2023-04-03T02:20:02;5.77;;;3.50;;
36247;SDS011;22287;50.824;5.644;2023-04-03T02:22:32;5.33;;;4.10;;
36247;SDS011;22287;50.824;5.644;2023-04-03T02:25:00;6.73;;;4.20;;
36247;SDS011;22287;50.824;5.644;2023-04-03T02:27:27;5.23;;;3.90;;
36247;SDS011;22287;50.824;5.644;2023-04-03T02:29:54;5.67;;;3.87;;
36247;SDS011;22287;50.824;5.644;2023-04-03T02:32:21;4.73;;;3.80;;
36247;SDS011;22287;50.824;5.644;2023-04-03T02:34:48;5.53;;;4.07;;
36247;SDS011;22287;50.824;5.644;2023-04-03T02:37:16;5.93;;;4.37;;
36247;SDS011;22287;50.824;5.644;2023-04-03T02:39:45;6.83;;;4.20;;
36247;SDS011;22287;50.824;5.644;2023-04-03T02:42:12;5.33;;;3.90;;
36247;SDS011;22287;50.824;5.644;2023-04-03T02:44:40;5.90;;;4.70;;
36247;SDS011;22287;50.824;5.644;2023-04-03T02:47:08;7.10;;;4.60;;
36247;SDS011;22287;50.824;5.644;2023-04-03T02:49:35;6.80;;;4.60;;
36247;SDS011;22287;50.824;5.644;2023-04-03T02:52:02;8.23;;;5.20;;
36247;SDS011;22287;50.824;5.644;2023-04-03T02:54:29;5.63;;;4.23;;
36247;SDS011;22287;50.824;5.644;2023-04-03T02:57:00;6.87;;;4.70;;
36247;SDS011;22287;50.824;5.644;2023-04-03T02:59:27;6.80;;;4.87;;
36247;SDS011;22287;50.824;5.644;2023-04-03T03:01:54;6.97;;;4.73;;
36247;SDS011;22287;50.824;5.644;2023-04-03T03:04:22;8.47;;;4.80;;
36247;SDS011;22287;50.824;5.644;2023-04-03T03:06:49;7.90;;;5.27;;
36247;SDS011;22287;50.824;5.644;2023-04-03T03:09:17;7.73;;;4.57;;
36247;SDS011;22287;50.824;5.644;2023-04-03T03:11:43;7.83;;;5.23;;
36247;SDS011;22287;50.824;5.644;2023-04-03T03:14:10;7.97;;;4.93;;
36247;SDS011;22287;50.824;5.644;2023-04-03T03:16:37;6.20;;;4.83;;
36247;SDS011;22287;50.824;5.644;2023-04-03T03:19:04;7.37;;;4.70;;
36247;SDS011;22287;50.824;5.644;2023-04-03T03:21:31;6.03;;;4.60;;
36247;SDS011;22287;50.824;5.644;2023-04-03T03:23:57;8.17;;;5.10;;
36247;SDS011;22287;50.824;5.644;2023-04-03T03:26:25;8.73;;;5.13;;
36247;SDS011;22287;50.824;5.644;2023-04-03T03:28:53;7.97;;;4.97;;
36247;SDS011;22287;50.824;5.644;2023-04-03T03:31:21;6.40;;;4.67;;
36247;SDS011;22287;50.824;5.644;2023-04-03T03:33:48;6.97;;;5.17;;
36247;SDS011;22287;50.824;5.644;2023-04-03T03:36:15;6.57;;;4.63;;
36247;SDS011;22287;50.824;5.644;2023-04-03T03:38:42;5.07;;;4.50;;
36247;SDS011;22287;50.824;5.644;2023-04-03T03:41:09;5.57;;;4.10;;
36247;SDS011;22287;50.824;5.644;2023-04-03T03:43:36;8.50;;;5.20;;
36247;SDS011;22287;50.824;5.644;2023-04-03T03:46:05;5.83;;;4.30;;
36247;SDS011;22287;50.824;5.644;2023-04-03T03:48:32;7.70;;;4.70;;
36247;SDS011;22287;50.824;5.644;2023-04-03T03:51:00;8.07;;;4.57;;
36247;SDS011;22287;50.824;5.644;2023-04-03T03:53:30;5.53;;;4.28;;
36247;SDS011;22287;50.824;5.644;2023-04-03T03:56:02;7.70;;;4.27;;
36247;SDS011;22287;50.824;5.644;2023-04-03T03:58:30;6.23;;;4.40;;
36247;SDS011;22287;50.824;5.644;2023-04-03T04:01:02;7.03;;;4.33;;
36247;SDS011;22287;50.824;5.644;2023-04-03T04:03:37;6.53;;;4.37;;
36247;SDS011;22287;50.824;5.644;2023-04-03T04:06:06;7.27;;;4.93;;
36247;SDS011;22287;50.824;5.644;2023-04-03T04:08:33;7.17;;;4.23;;
36247;SDS011;22287;50.824;5.644;2023-04-03T04:11:01;5.73;;;4.23;;
36247;SDS011;22287;50.824;5.644;2023-04-03T04:13:29;8.73;;;4.77;;
36247;SDS011;22287;50.824;5.644;2023-04-03T04:15:56;7.87;;;4.97;;
36247;SDS011;22287;50.824;5.644;2023-04-03T04:18:22;7.30;;;4.27;;
36247;SDS011;22287;50.824;5.644;2023-04-03T04:20:51;8.17;;;5.10;;
36247;SDS011;22287;50.824;5.644;2023-04-03T04:23:18;7.07;;;4.97;;
36247;SDS011;22287;50.824;5.644;2023-04-03T04:25:47;7.47;;;5.07;;
36247;SDS011;22287;50.824;5.644;2023-04-03T04:28:15;8.13;;;4.90;;
36247;SDS011;22287;50.824;5.644;2023-04-03T04:30:43;7.10;;;4.80;;
36247;SDS011;22287;50.824;5.644;2023-04-03T04:33:12;8.13;;;4.83;;
36247;SDS011;22287;50.824;5.644;2023-04-03T04:35:42;6.13;;;4.90;;
36247;SDS011;22287;50.824;5.644;2023-04-03T04:38:10;6.93;;;5.37;;
36247;SDS011;22287;50.824;5.644;2023-04-03T04:40:37;7.07;;;4.97;;
36247;SDS011;22287;50.824;5.644;2023-04-03T04:43:05;8.10;;;5.70;;
36247;SDS011;22287;50.824;5.644;2023-04-03T04:45:32;9.00;;;5.43;;
36247;SDS011;22287;50.824;5.644;2023-04-03T04:47:59;8.10;;;5.73;;
36247;SDS011;22287;50.824;5.644;2023-04-03T04:50:26;7.67;;;4.67;;
36247;SDS011;22287;50.824;5.644;2023-04-03T04:52:54;6.20;;;4.83;;
36247;SDS011;22287;50.824;5.644;2023-04-03T04:55:21;6.47;;;4.53;;
36247;SDS011;22287;50.824;5.644;2023-04-03T04:57:49;6.80;;;5.30;;
36247;SDS011;22287;50.824;5.644;2023-04-03T05:00:16;6.83;;;4.97;;
36247;SDS011;22287;50.824;5.644;2023-04-03T05:02:44;6.70;;;4.90;;
36247;SDS011;22287;50.824;5.644;2023-04-03T05:05:10;8.10;;;5.70;;
36247;SDS011;22287;50.824;5.644;2023-04-03T05:07:37;8.83;;;5.70;;
36247;SDS011;22287;50.824;5.644;2023-04-03T05:10:04;9.97;;;5.57;;
36247;SDS011;22287;50.824;5.644;2023-04-03T05:12:32;8.97;;;5.60;;
36247;SDS011;22287;50.824;5.644;2023-04-03T05:15:02;7.03;;;5.50;;
36247;SDS011;22287;50.824;5.644;2023-04-03T05:17:30;7.10;;;5.23;;
36247;SDS011;22287;50.824;5.644;2023-04-03T05:19:57;7.10;;;5.43;;
36247;SDS011;22287;50.824;5.644;2023-04-03T05:22:25;8.97;;;6.13;;
36247;SDS011;22287;50.824;5.644;2023-04-03T05:24:56;9.43;;;6.22;;
36247;SDS011;22287;50.824;5.644;2023-04-03T05:27:23;10.07;;;6.30;;
36247;SDS011;22287;50.824;5.644;2023-04-03T05:29:53;10.33;;;6.97;;
36247;SDS011;22287;50.824;5.644;2023-04-03T05:32:22;11.47;;;6.03;;
36247;SDS011;22287;50.824;5.644;2023-04-03T05:34:58;12.23;;;7.73;;
36247;SDS011;22287;50.824;5.644;2023-04-03T05:37:27;11.27;;;7.57;;
36247;SDS011;22287;50.824;5.644;2023-04-03T05:39:54;12.17;;;7.90;;
36247;SDS011;22287;50.824;5.644;2023-04-03T05:42:22;11.87;;;8.60;;
36247;SDS011;22287;50.824;5.644;2023-04-03T05:44:49;12.00;;;8.20;;
36247;SDS011;22287;50.824;5.644;2023-04-03T05:47:17;11.60;;;8.60;;
36247;SDS011;22287;50.824;5.644;2023-04-03T05:49:44;11.03;;;8.33;;
36247;SDS011;22287;50.824;5.644;2023-04-03T05:52:20;13.20;;;9.50;;
36247;SDS011;22287;50.824;5.644;2023-04-03T05:54:52;12.00;;;8.47;;
36247;SDS011;22287;50.824;5.644;2023-04-03T05:57:24;12.83;;;8.93;;
36247;SDS011;22287;50.824;5.644;2023-04-03T05:59:51;13.93;;;8.70;;
36247;SDS011;22287;50.824;5.644;2023-04-03T06:02:20;13.23;;;8.47;;
36247;SDS011;22287;50.824;5.644;2023-04-03T06:04:50;13.20;;;9.13;;
36247;SDS011;22287;50.824;5.644;2023-04-03T06:07:19;13.07;;;8.43;;
36247;SDS011;22287;50.824;5.644;2023-04-03T06:10:07;13.37;;;9.57;;
36247;SDS011;22287;50.824;5.644;2023-04-03T06:12:35;11.63;;;8.67;;
36247;SDS011;22287;50.824;5.644;2023-04-03T06:15:02;16.87;;;8.83;;
36247;SDS011;22287;50.824;5.644;2023-04-03T06:17:30;12.60;;;8.65;;
36247;SDS011;22287;50.824;5.644;2023-04-03T06:19:57;11.37;;;8.30;;
36247;SDS011;22287;50.824;5.644;2023-04-03T06:22:25;11.37;;;7.80;;
36247;SDS011;22287;50.824;5.644;2023-04-03T06:24:52;12.10;;;8.20;;
36247;SDS011;22287;50.824;5.644;2023-04-03T06:27:18;13.32;;;8.90;;
36247;SDS011;22287;50.824;5.644;2023-04-03T06:29:46;10.43;;;7.50;;
36247;SDS011;22287;50.824;5.644;2023-04-03T06:32:13;10.27;;;7.47;;
36247;SDS011;22287;50.824;5.644;2023-04-03T06:34:40;11.97;;;7.87;;
36247;SDS011;22287;50.824;5.644;2023-04-03T06:37:14;12.17;;;7.50;;
36247;SDS011;22287;50.824;5.644;2023-04-03T06:39:47;11.20;;;7.18;;
36247;SDS011;22287;50.824;5.644;2023-04-03T06:42:14;12.33;;;6.93;;
36247;SDS011;22287;50.824;5.644;2023-04-03T06:44:54;11.57;;;7.55;;
36247;SDS011;22287;50.824;5.644;2023-04-03T06:47:21;9.90;;;6.90;;
36247;SDS011;22287;50.824;5.644;2023-04-03T06:49:48;9.20;;;6.67;;
36247;SDS011;22287;50.824;5.644;2023-04-03T06:52:15;10.90;;;7.10;;
36247;SDS011;22287;50.824;5.644;2023-04-03T06:54:41;11.50;;;6.88;;
36247;SDS011;22287;50.824;5.644;2023-04-03T06:57:08;13.63;;;6.60;;
36247;SDS011;22287;50.824;5.644;2023-04-03T06:59:35;10.77;;;6.27;;
36247;SDS011;22287;50.824;5.644;2023-04-03T07:02:03;10.23;;;6.57;;
36247;SDS011;22287;50.824;5.644;2023-04-03T07:04:30;11.85;;;7.25;;
36247;SDS011;22287;50.824;5.644;2023-04-03T07:06:57;9.93;;;6.22;;
36247;SDS011;22287;50.824;5.644;2023-04-03T07:09:24;7.93;;;6.10;;
36247;SDS011;22287;50.824;5.644;2023-04-03T07:11:51;9.77;;;6.55;;
36247;SDS011;22287;50.824;5.644;2023-04-03T07:14:18;8.32;;;5.57;;
36247;SDS011;22287;50.824;5.644;2023-04-03T07:16:45;10.63;;;6.18;;
36247;SDS011;22287;50.824;5.644;2023-04-03T07:19:12;9.00;;;5.90;;
36247;SDS011;22287;50.824;5.644;2023-04-03T07:21:39;10.32;;;5.78;;
36247;SDS011;22287;50.824;5.644;2023-04-03T07:24:08;8.05;;;5.30;;
36247;SDS011;22287;50.824;5.644;2023-04-03T07:26:36;7.05;;;5.43;;
36247;SDS011;22287;50.824;5.644;2023-04-03T07:29:03;6.38;;;5.18;;
36247;SDS011;22287;50.824;5.644;2023-04-03T07:31:30;8.45;;;5.18;;
36247;SDS011;22287;50.824;5.644;2023-04-03T07:33:57;8.00;;;4.93;;
36247;SDS011;22287;50.824;5.644;2023-04-03T07:36:24;7.93;;;5.07;;
36247;SDS011;22287;50.824;5.644;2023-04-03T07:38:51;8.25;;;4.88;;
36247;SDS011;22287;50.824;5.644;2023-04-03T07:41:19;9.07;;;4.68;;
36247;SDS011;22287;50.824;5.644;2023-04-03T07:43:47;6.10;;;4.57;;
36247;SDS011;22287;50.824;5.644;2023-04-03T07:46:16;8.73;;;4.45;;
36247;SDS011;22287;50.824;5.644;2023-04-03T07:48:43;8.70;;;4.65;;
36247;SDS011;22287;50.824;5.644;2023-04-03T07:51:11;5.80;;;4.13;;
36247;SDS011;22287;50.824;5.644;2023-04-03T07:53:39;4.35;;;3.20;;
36247;SDS011;22287;50.824;5.644;2023-04-03T07:56:06;5.05;;;3.97;;
36247;SDS011;22287;50.824;5.644;2023-04-03T07:58:33;8.15;;;4.22;;
36247;SDS011;22287;50.824;5.644;2023-04-03T08:01:00;5.82;;;3.72;;
36247;SDS011;22287;50.824;5.644;2023-04-03T08:03:27;6.45;;;3.60;;
36247;SDS011;22287;50.824;5.644;2023-04-03T08:05:54;7.47;;;3.50;;
36247;SDS011;22287;50.824;5.644;2023-04-03T08:08:22;6.88;;;3.70;;
36247;SDS011;22287;50.824;5.644;2023-04-03T08:10:52;5.22;;;3.20;;
36247;SDS011;22287;50.824;5.644;2023-04-03T08:13:21;6.32;;;3.70;;
36247;SDS011;22287;50.824;5.644;2023-04-03T08:15:48;4.38;;;3.33;;
36247;SDS011;22287;50.824;5.644;2023-04-03T08:18:16;4.85;;;3.13;;
36247;SDS011;22287;50.824;5.644;2023-04-03T08:20:44;6.22;;;3.15;;
36247;SDS011;22287;50.824;5.644;2023-04-03T08:23:11;5.57;;;2.80;;
36247;SDS011;22287;50.824;5.644;2023-04-03T08:25:41;6.30;;;3.42;;
36247;SDS011;22287;50.824;5.644;2023-04-03T08:28:10;5.55;;;2.83;;
36247;SDS011;22287;50.824;5.644;2023-04-03T08:30:40;4.90;;;2.70;;
36247;SDS011;22287;50.824;5.644;2023-04-03T08:33:09;5.47;;;2.95;;
36247;SDS011;22287;50.824;5.644;2023-04-03T08:35:39;3.78;;;2.28;;
36247;SDS011;22287;50.824;5.644;2023-04-03T08:38:08;6.55;;;2.72;;
36247;SDS011;22287;50.824;5.644;2023-04-03T08:40:36;5.65;;;2.67;;
36247;SDS011;22287;50.824;5.644;2023-04-03T08:45:50;4.63;;;2.30;;
36247;SDS011;22287;50.824;5.644;2023-04-03T08:48:21;3.80;;;2.03;;
36247;SDS011;22287;50.824;5.644;2023-04-03T08:50:55;2.58;;;1.90;;
36247;SDS011;22287;50.824;5.644;2023-04-03T08:53:29;5.95;;;2.30;;
36247;SDS011;22287;50.824;5.644;2023-04-03T08:56:02;4.32;;;2.00;;
36247;SDS011;22287;50.824;5.644;2023-04-03T08:58:36;4.20;;;1.95;;
36247;SDS011;22287;50.824;5.644;2023-04-03T09:01:21;5.18;;;2.00;;
36247;SDS011;22287;50.824;5.644;2023-04-03T09:03:53;2.10;;;1.50;;
36247;SDS011;22287;50.824;5.644;2023-04-03T09:06:23;3.75;;;1.83;;
36247;SDS011;22287;50.824;5.644;2023-04-03T09:14:39;4.05;;;1.63;;
36247;SDS011;22287;50.824;5.644;2023-04-03T09:17:41;3.13;;;1.45;;
36247;SDS011;22287;50.824;5.644;2023-04-03T09:22:41;5.43;;;1.83;;
36247;SDS011;22287;50.824;5.644;2023-04-03T09:25:18;3.30;;;1.33;;
36247;SDS011;22287;50.824;5.644;2023-04-03T09:27:49;2.33;;;1.58;;
36247;SDS011;22287;50.824;5.644;2023-04-03T09:30:18;4.15;;;1.70;;
36247;SDS011;22287;50.824;5.644;2023-04-03T09:32:48;3.05;;;1.88;;
36247;SDS011;22287;50.824;5.644;2023-04-03T09:35:21;4.03;;;1.42;;
36247;SDS011;22287;50.824;5.644;2023-04-03T09:38:14;2.97;;;1.27;;
36247;SDS011;22287;50.824;5.644;2023-04-03T09:40:51;3.28;;;1.40;;
36247;SDS011;22287;50.824;5.644;2023-04-03T09:43:30;3.67;;;1.23;;
36247;SDS011;22287;50.824;5.644;2023-04-03T09:48:58;3.53;;;1.65;;
36247;SDS011;22287;50.824;5.644;2023-04-03T09:51:34;3.63;;;1.60;;
36247;SDS011;22287;50.824;5.644;2023-04-03T09:54:01;3.58;;;1.25;;
36247;SDS011;22287;50.824;5.644;2023-04-03T09:56:53;4.18;;;1.70;;
36247;SDS011;22287;50.824;5.644;2023-04-03T09:59:22;4.88;;;1.67;;
36247;SDS011;22287;50.824;5.644;2023-04-03T10:01:59;4.97;;;1.77;;
36247;SDS011;22287;50.824;5.644;2023-04-03T10:04:38;3.58;;;1.73;;
36247;SDS011;22287;50.824;5.644;2023-04-03T10:10:16;2.63;;;1.00;;
36247;SDS011;22287;50.824;5.644;2023-04-03T10:12:46;2.95;;;1.15;;
36247;SDS011;22287;50.824;5.644;2023-04-03T10:15:14;2.58;;;1.13;;
36247;SDS011;22287;50.824;5.644;2023-04-03T10:17:55;2.17;;;1.00;;
36247;SDS011;22287;50.824;5.644;2023-04-03T10:20:36;4.63;;;1.13;;
36247;SDS011;22287;50.824;5.644;2023-04-03T10:28:56;2.20;;;0.98;;
36247;SDS011;22287;50.824;5.644;2023-04-03T10:31:43;6.03;;;1.25;;
36247;SDS011;22287;50.824;5.644;2023-04-03T10:48:11;3.33;;;1.33;;
36247;SDS011;22287;50.824;5.644;2023-04-03T10:57:01;4.38;;;0.82;;
36247;SDS011;22287;50.824;5.644;2023-04-03T10:59:51;2.72;;;0.70;;
36247;SDS011;22287;50.824;5.644;2023-04-03T11:02:28;2.60;;;1.10;;
36247;SDS011;22287;50.824;5.644;2023-04-03T11:05:01;3.13;;;0.95;;
36247;SDS011;22287;50.824;5.644;2023-04-03T11:07:40;3.15;;;1.02;;
36247;SDS011;22287;50.824;5.644;2023-04-03T11:10:13;2.22;;;0.73;;
36247;SDS011;22287;50.824;5.644;2023-04-03T11:12:56;2.42;;;1.10;;
36247;SDS011;22287;50.824;5.644;2023-04-03T11:15:29;2.33;;;1.35;;
36247;SDS011;22287;50.824;5.644;2023-04-03T11:18:02;3.55;;;1.10;;
36247;SDS011;22287;50.824;5.644;2023-04-03T11:20:35;3.58;;;1.27;;
36247;SDS011;22287;50.824;5.644;2023-04-03T11:23:08;2.13;;;0.88;;
36247;SDS011;22287;50.824;5.644;2023-04-03T11:25:38;1.88;;;0.80;;
36247;SDS011;22287;50.824;5.644;2023-04-03T11:28:14;2.83;;;0.70;;
36247;SDS011;22287;50.824;5.644;2023-04-03T11:31:03;1.58;;;0.47;;
36247;SDS011;22287;50.824;5.644;2023-04-03T11:33:44;1.85;;;0.50;;
36247;SDS011;22287;50.824;5.644;2023-04-03T11:36:19;1.48;;;0.90;;
36247;SDS011;22287;50.824;5.644;2023-04-03T11:38:52;1.20;;;0.60;;
36247;SDS011;22287;50.824;5.644;2023-04-03T11:41:29;1.83;;;0.50;;
36247;SDS011;22287;50.824;5.644;2023-04-03T11:46:50;4.20;;;0.70;;
36247;SDS011;22287;50.824;5.644;2023-04-03T12:16:05;1.95;;;1.10;;
36247;SDS011;22287;50.824;5.644;2023-04-03T12:21:16;3.08;;;0.80;;
36247;SDS011;22287;50.824;5.644;2023-04-03T12:23:58;2.35;;;0.55;;
36247;SDS011;22287;50.824;5.644;2023-04-03T12:26:31;3.75;;;0.77;;
36247;SDS011;22287;50.824;5.644;2023-04-03T12:47:33;1.35;;;0.80;;
36247;SDS011;22287;50.824;5.644;2023-04-03T12:50:04;1.65;;;0.82;;
36247;SDS011;22287;50.824;5.644;2023-04-03T12:53:00;2.05;;;0.80;;
36247;SDS011;22287;50.824;5.644;2023-04-03T12:55:28;2.35;;;0.98;;
36247;SDS011;22287;50.824;5.644;2023-04-03T12:57:55;2.28;;;0.90;;
36247;SDS011;22287;50.824;5.644;2023-04-03T13:00:27;3.83;;;0.95;;
36247;SDS011;22287;50.824;5.644;2023-04-03T13:02:56;2.92;;;1.00;;
36247;SDS011;22287;50.824;5.644;2023-04-03T13:05:24;3.38;;;0.90;;
36247;SDS011;22287;50.824;5.644;2023-04-03T13:08:04;2.67;;;1.02;;
36247;SDS011;22287;50.824;5.644;2023-04-03T13:10:43;1.23;;;0.52;;
36247;SDS011;22287;50.824;5.644;2023-04-03T13:13:31;1.70;;;0.82;;
36247;SDS011;22287;50.824;5.644;2023-04-03T13:15:58;1.67;;;0.70;;
36247;SDS011;22287;50.824;5.644;2023-04-03T13:18:30;2.55;;;0.90;;
36247;SDS011;22287;50.824;5.644;2023-04-03T13:21:21;1.88;;;0.88;;
36247;SDS011;22287;50.824;5.644;2023-04-03T13:23:55;1.90;;;0.80;;
36247;SDS011;22287;50.824;5.644;2023-04-03T13:26:39;2.53;;;0.82;;
36247;SDS011;22287;50.824;5.644;2023-04-03T13:29:14;3.05;;;0.98;;
36247;SDS011;22287;50.824;5.644;2023-04-03T13:31:57;2.42;;;0.88;;
36247;SDS011;22287;50.824;5.644;2023-04-03T13:34:26;2.33;;;0.73;;
36247;SDS011;22287;50.824;5.644;2023-04-03T13:36:57;1.60;;;0.77;;
36247;SDS011;22287;50.824;5.644;2023-04-03T13:39:29;2.28;;;0.70;;
36247;SDS011;22287;50.824;5.644;2023-04-03T13:41:57;1.67;;;0.80;;
36247;SDS011;22287;50.824;5.644;2023-04-03T13:44:28;2.28;;;0.95;;
36247;SDS011;22287;50.824;5.644;2023-04-03T13:46:59;3.03;;;0.88;;
36247;SDS011;22287;50.824;5.644;2023-04-03T13:49:43;2.97;;;0.80;;
36247;SDS011;22287;50.824;5.644;2023-04-03T13:52:32;2.67;;;0.90;;
36247;SDS011;22287;50.824;5.644;2023-04-03T13:55:15;3.53;;;0.90;;
36247;SDS011;22287;50.824;5.644;2023-04-03T13:58:03;2.88;;;0.90;;
36247;SDS011;22287;50.824;5.644;2023-04-03T14:00:51;1.98;;;0.80;;
36247;SDS011;22287;50.824;5.644;2023-04-03T14:06:13;1.00;;;0.80;;
36247;SDS011;22287;50.824;5.644;2023-04-03T14:08:42;4.90;;;1.10;;
36247;SDS011;22287;50.824;5.644;2023-04-03T14:11:17;2.03;;;0.90;;
36247;SDS011;22287;50.824;5.644;2023-04-03T14:13:50;3.17;;;1.17;;
36247;SDS011;22287;50.824;5.644;2023-04-03T14:16:21;2.38;;;0.70;;
36247;SDS011;22287;50.824;5.644;2023-04-03T14:18:49;1.77;;;1.00;;
36247;SDS011;22287;50.824;5.644;2023-04-03T14:21:18;1.73;;;0.88;;
36247;SDS011;22287;50.824;5.644;2023-04-03T14:23:46;2.92;;;1.00;;
36247;SDS011;22287;50.824;5.644;2023-04-03T14:26:15;2.08;;;0.90;;
36247;SDS011;22287;50.824;5.644;2023-04-03T14:28:44;2.33;;;0.88;;
36247;SDS011;22287;50.824;5.644;2023-04-03T14:31:13;2.47;;;0.65;;
36247;SDS011;22287;50.824;5.644;2023-04-03T14:33:41;1.80;;;0.60;;
36247;SDS011;22287;50.824;5.644;2023-04-03T14:36:15;3.22;;;0.93;;
36247;SDS011;22287;50.824;5.644;2023-04-03T14:38:43;2.90;;;0.70;;
36247;SDS011;22287;50.824;5.644;2023-04-03T14:41:12;2.83;;;0.90;;
36247;SDS011;22287;50.824;5.644;2023-04-03T14:46:13;1.13;;;0.50;;
36247;SDS011;22287;50.824;5.644;2023-04-03T14:48:45;2.50;;;0.60;;
36247;SDS011;22287;50.824;5.644;2023-04-03T14:51:12;1.52;;;0.70;;
36247;SDS011;22287;50.824;5.644;2023-04-03T14:53:41;2.63;;;0.95;;
36247;SDS011;22287;50.824;5.644;2023-04-03T14:56:14;2.78;;;0.90;;
36247;SDS011;22287;50.824;5.644;2023-04-03T14:58:44;2.80;;;0.77;;
36247;SDS011;22287;50.824;5.644;2023-04-03T15:01:16;1.90;;;0.75;;
36247;SDS011;22287;50.824;5.644;2023-04-03T15:03:44;3.30;;;1.00;;
36247;SDS011;22287;50.824;5.644;2023-04-03T15:06:11;3.03;;;0.80;;
36247;SDS011;22287;50.824;5.644;2023-04-03T15:08:40;1.70;;;0.68;;
36247;SDS011;22287;50.824;5.644;2023-04-03T15:11:09;2.38;;;0.68;;
36247;SDS011;22287;50.824;5.644;2023-04-03T15:13:37;1.63;;;0.52;;
36247;SDS011;22287;50.824;5.644;2023-04-03T15:16:05;1.58;;;0.60;;
36247;SDS011;22287;50.824;5.644;2023-04-03T15:18:39;2.08;;;0.60;;
36247;SDS011;22287;50.824;5.644;2023-04-03T15:21:06;3.75;;;0.63;;
36247;SDS011;22287;50.824;5.644;2023-04-03T15:23:33;2.65;;;0.70;;
36247;SDS011;22287;50.824;5.644;2023-04-03T15:25:59;2.58;;;0.70;;
36247;SDS011;22287;50.824;5.644;2023-04-03T15:28:39;0.93;;;0.50;;
36247;SDS011;22287;50.824;5.644;2023-04-03T15:31:08;2.10;;;0.40;;
36247;SDS011;22287;50.824;5.644;2023-04-03T15:33:35;0.90;;;0.40;;
36247;SDS011;22287;50.824;5.644;2023-04-03T15:36:03;1.60;;;0.40;;
36247;SDS011;22287;50.824;5.644;2023-04-03T15:38:32;1.52;;;0.98;;
36247;SDS011;22287;50.824;5.644;2023-04-03T15:40:59;0.90;;;0.47;;
36247;SDS011;22287;50.824;5.644;2023-04-03T15:43:27;2.08;;;0.80;;
36247;SDS011;22287;50.824;5.644;2023-04-03T15:45:55;0.82;;;0.50;;
36247;SDS011;22287;50.824;5.644;2023-04-03T15:48:24;1.15;;;0.50;;
36247;SDS011;22287;50.824;5.644;2023-04-03T15:51:10;3.22;;;0.57;;
36247;SDS011;22287;50.824;5.644;2023-04-03T15:53:37;2.60;;;0.98;;
36247;SDS011;22287;50.824;5.644;2023-04-03T15:56:03;2.10;;;0.60;;
36247;SDS011;22287;50.824;5.644;2023-04-03T15:58:31;1.48;;;1.00;;
36247;SDS011;22287;50.824;5.644;2023-04-03T16:00:57;2.55;;;0.38;;
36247;SDS011;22287;50.824;5.644;2023-04-03T16:03:24;0.77;;;0.38;;
36247;SDS011;22287;50.824;5.644;2023-04-03T16:05:51;2.00;;;0.68;;
36247;SDS011;22287;50.824;5.644;2023-04-03T16:08:19;0.80;;;0.43;;
36247;SDS011;22287;50.824;5.644;2023-04-03T16:10:46;2.03;;;0.63;;
36247;SDS011;22287;50.824;5.644;2023-04-03T16:13:13;1.30;;;0.55;;
36247;SDS011;22287;50.824;5.644;2023-04-03T16:15:41;2.63;;;0.57;;
36247;SDS011;22287;50.824;5.644;2023-04-03T16:18:08;1.23;;;0.60;;
36247;SDS011;22287;50.824;5.644;2023-04-03T16:20:36;4.88;;;0.70;;
36247;SDS011;22287;50.824;5.644;2023-04-03T16:23:04;1.90;;;0.60;;
36247;SDS011;22287;50.824;5.644;2023-04-03T16:25:31;0.88;;;0.60;;
36247;SDS011;22287;50.824;5.644;2023-04-03T16:27:58;2.15;;;0.60;;
36247;SDS011;22287;50.824;5.644;2023-04-03T16:30:25;1.77;;;0.50;;
36247;SDS011;22287;50.824;5.644;2023-04-03T16:32:52;2.17;;;0.60;;
36247;SDS011;22287;50.824;5.644;2023-04-03T16:35:20;2.05;;;0.60;;
36247;SDS011;22287;50.824;5.644;2023-04-03T16:37:46;1.30;;;0.70;;
36247;SDS011;22287;50.824;5.644;2023-04-03T16:40:13;1.70;;;0.60;;
36247;SDS011;22287;50.824;5.644;2023-04-03T16:42:40;1.67;;;0.63;;
36247;SDS011;22287;50.824;5.644;2023-04-03T16:45:08;3.58;;;0.80;;
36247;SDS011;22287;50.824;5.644;2023-04-03T16:47:35;2.47;;;1.35;;
36247;SDS011;22287;50.824;5.644;2023-04-03T16:50:02;2.75;;;1.45;;